Saturday, May 26, 2018, 5:14 AM CDT
Back to Local

KMDW, Chicago Midway Airport

Location: Chicago, IL, United States Lat: 41.783
Local Time: 5:14 AM CDT (10:14 GMT) Lon: -87.75
Time Zone: US/Central Elev: 620 ft

Show me the last for .
Show Decoded

2018-05-26 04:53 METAR KMDW 260953Z 24006KT 6SM BR FEW085 BKN160 21/19 A2976 RMK AO2 SLP065
                 T02060194 =
2018-05-26 03:53 METAR KMDW 260853Z 25006KT 7SM BKN075 OVC110 21/20 A2977 RMK AO2 SLP070 60000
                 T02110200 55002 =
2018-05-26 02:53 METAR KMDW 260753Z 19006KT 8SM BKN140 BKN250 22/20 A2974 RMK AO2 SLP059
                 T02170200 =
2018-05-26 01:53 METAR KMDW 260653Z 23006KT 9SM BKN200 22/20 A2976 RMK AO2 RAE01 SLP065 P0000
                 T02170200 =
2018-05-26 00:53 METAR KMDW 260553Z 21007KT 9SM -RA FEW085 BKN110 OVC250 22/21 A2978 RMK AO2
                 SLP072 P0000 60013 T02220206 10283 20222 403220200 58002 =
2018-05-25 23:53 METAR KMDW 260453Z 23008KT 7SM -RA FEW060 BKN100 OVC110 22/21 A2979 RMK AO2 LTG
                 DSNT E RAB27 SLP077 OCNL LTGIC DSNT E CB DSNT E P0005 T02220206 =
2018-05-25 22:53 METAR KMDW 260353Z 23006KT 10SM BKN070 OVC100 24/19 A2980 RMK AO2 RAE18 SLP081
                 P0002 T02440189 =
2018-05-25 21:53 METAR KMDW 260253Z 27003KT 9SM -RA BKN070 OVC100 26/18 A2978 RMK AO2 SLP074
                 RAB40 P0006 60006 T02560183 53008 =
2018-05-25 20:53 METAR KMDW 260153Z 29005KT 10SM SCT085 BKN130 OVC250 27/18 A2977 RMK AO2 SLP070
                 T02670178 =
2018-05-25 19:53 METAR KMDW 260053Z 26008KT 10SM FEW075 SCT160 BKN250 27/18 A2977 RMK AO2 SLP070
                 T02720178 =
2018-05-25 18:53 METAR KMDW 252353Z 29006KT 10SM FEW075 BKN170 OVC250 28/18 A2976 RMK AO2 SLP068
                 T02830178 10322 20283 55013 =
2018-05-25 17:53 METAR KMDW 252253Z 20006KT 10SM FEW075 SCT170 OVC250 31/14 A2976 RMK AO2 SLP065
                 T03110139 =
2018-05-25 16:53 METAR KMDW 252153Z 25008KT 10SM SCT075 SCT170 OVC250 31/14 A2979 RMK AO2 SLP075
                 T03110139 =
2018-05-25 15:53 METAR KMDW 252053Z 19007KT 10SM SCT075 BKN200 BKN250 32/14 A2980 RMK AO2 SLP080
                 T03170144 58030 =
2018-05-25 14:53 METAR KMDW 251953Z 22005KT 10SM SCT070 BKN200 BKN250 31/14 A2983 RMK AO2 SLP091
                 T03110144 =
2018-05-25 13:53 METAR KMDW 251853Z 20008G17KT 10SM SCT070 SCT200 BKN250 31/14 A2986 RMK AO2
                 SLP100 T03110144 =
2018-05-25 12:53 METAR KMDW 251753Z 27009KT 10SM SCT065 SCT250 31/16 A2989 RMK AO2 SLP110
                 T03060156 10311 20217 58014 =
2018-05-25 11:53 METAR KMDW 251653Z 27010G15KT 10SM FEW060 SCT200 BKN250 30/16 A2991 RMK AO2
                 SLP117 T03000161 =
2018-05-25 10:53 METAR KMDW 251553Z 22008KT 10SM SCT250 29/16 A2992 RMK AO2 SLP121 T02890161 =
2018-05-25 09:53 METAR KMDW 251453Z 23008KT 10SM FEW250 28/16 A2993 RMK AO2 SLP125 T02780156
                 58007 =
2018-05-25 08:53 METAR KMDW 251353Z 22008KT 10SM FEW250 26/15 A2995 RMK AO2 SLP130 T02610150 =
2018-05-25 07:53 METAR KMDW 251253Z 22008KT 10SM FEW250 24/13 A2995 RMK AO2 SLP133 T02390133 =
2018-05-25 06:53 METAR KMDW 251153Z 21007KT 10SM FEW250 22/13 A2995 RMK AO2 SLP132 T02170128
                 10228 20200 56010 =
2018-05-25 05:53 METAR KMDW 251053Z 21006KT 10SM FEW250 20/12 A2996 RMK AO2 SLP135 T02000117 =

Support USWX by starting your Amazon purchase here.